Terminal Aerodrome Forecast
Issued by NWS

Home | Current Version | Previous Version | Text Only | Print | Product List | Glossary On
Versions: 1 2 3 4 5 6 7 8 9 10 11 12 13 14 15 16 17 18 19 20 21 22 23 24
496
FTUS45 KABQ 191743 AAA
TAFFMN
TAF AMD
KFMN 191743Z 1918/2018 08006KT P6SM SCT120 BKN200
     FM192100 35007KT P6SM VCSH BKN040 OVC150
     FM200000 25007KT 3SM -SN BR SCT019 OVC030
     FM200500 27006KT 1SM -SN BR SCT010 OVC025
     FM201600 27011KT P6SM OVC050=

USA.gov is the U.S. government's official web portal to all federal, state and local government web resources and services.